Terminal Aerodrome Forecast
Issued by NWS Cleveland, OH

Home | Current Version | Previous Version | Graphics & Text | Print | Product List | Glossary On
Versions: 1 2 3 4 5 6 7 8 9 10 11 12 13 14 15 16 17 18 19 20 21 22 23
000
FTUS41 KCLE 021126
TAFYNG
TAF
KYNG 021126Z 0212/0312 02004KT P6SM OVC004
     FM021300 02004KT P6SM OVC035
     FM021500 34008KT P6SM OVC007
     FM021800 35007KT P6SM OVC015
     FM022100 02005KT P6SM OVC035
     FM030800 VRB03KT P6SM OVC015=

USA.gov is the U.S. government's official web portal to all federal, state and local government web resources and services.